<?xml version="1.0" encoding="UTF-8" standalone="no" ?>
<gpx xmlns="http://www.topografix.com/GPX/1/1" xmlns:xsi="http://www.w3.org/2001/XMLSchema-instance" xsi:schemaLocation="http://www.topografix.com/GPX/1/1 http://www.topografix.com/GPX/1/1/gpx.xsd" version="1.1" creator="VisuGPX - https://www.visugpx.com">
  <metadata>
    <name>14324598-Balade Sablons 26/02/2022</name>
  </metadata>
  <trk>
    <name><![CDATA[14324598-Balade Sablons 26/02/2022]]></name>
    <trkseg>
      <trkpt lat="45.32317" lon="4.77822">
        <ele>137</ele>
        <time>2022-02-26T17:13:25Z</time>
      </trkpt>
      <trkpt lat="45.32321" lon="4.7783">
        <ele>137</ele>
        <time>2022-02-26T17:13:34Z</time>
      </trkpt>
      <trkpt lat="45.32313" lon="4.77786">
        <ele>136</ele>
        <time>2022-02-26T17:14:17Z</time>
      </trkpt>
      <trkpt lat="45.32328" lon="4.7782">
        <ele>137</ele>
        <time>2022-02-26T17:14:55Z</time>
      </trkpt>
      <trkpt lat="45.32334" lon="4.77854">
        <ele>137</ele>
        <time>2022-02-26T17:15:27Z</time>
      </trkpt>
      <trkpt lat="45.32332" lon="4.77896">
        <ele>137</ele>
        <time>2022-02-26T17:16:07Z</time>
      </trkpt>
      <trkpt lat="45.3233" lon="4.77882">
        <ele>137</ele>
        <time>2022-02-26T17:16:20Z</time>
      </trkpt>
      <trkpt lat="45.3236" lon="4.7791">
        <ele>137</ele>
        <time>2022-02-26T17:17:08Z</time>
      </trkpt>
      <trkpt lat="45.32375" lon="4.77932">
        <ele>137</ele>
        <time>2022-02-26T17:17:37Z</time>
      </trkpt>
      <trkpt lat="45.32399" lon="4.77992">
        <ele>139</ele>
        <time>2022-02-26T17:18:42Z</time>
      </trkpt>
      <trkpt lat="45.32388" lon="4.78068">
        <ele>139</ele>
        <time>2022-02-26T17:19:55Z</time>
      </trkpt>
      <trkpt lat="45.32405" lon="4.78068">
        <ele>139</ele>
        <time>2022-02-26T17:20:17Z</time>
      </trkpt>
      <trkpt lat="45.32402" lon="4.78053">
        <ele>139</ele>
        <time>2022-02-26T17:20:32Z</time>
      </trkpt>
      <trkpt lat="45.32422" lon="4.78092">
        <ele>139</ele>
        <time>2022-02-26T17:21:17Z</time>
      </trkpt>
      <trkpt lat="45.32447" lon="4.78122">
        <ele>138</ele>
        <time>2022-02-26T17:22:01Z</time>
      </trkpt>
      <trkpt lat="45.32455" lon="4.78171">
        <ele>138</ele>
        <time>2022-02-26T17:22:48Z</time>
      </trkpt>
      <trkpt lat="45.32464" lon="4.78165">
        <ele>138</ele>
        <time>2022-02-26T17:23:01Z</time>
      </trkpt>
      <trkpt lat="45.32483" lon="4.78162">
        <ele>138</ele>
        <time>2022-02-26T17:23:27Z</time>
      </trkpt>
      <trkpt lat="45.32486" lon="4.78212">
        <ele>138</ele>
        <time>2022-02-26T17:24:14Z</time>
      </trkpt>
      <trkpt lat="45.32507" lon="4.78314">
        <ele>139</ele>
        <time>2022-02-26T17:25:54Z</time>
      </trkpt>
      <trkpt lat="45.3252" lon="4.78325">
        <ele>139</ele>
        <time>2022-02-26T17:26:14Z</time>
      </trkpt>
      <trkpt lat="45.32535" lon="4.78389">
        <ele>139</ele>
        <time>2022-02-26T17:27:17Z</time>
      </trkpt>
      <trkpt lat="45.32546" lon="4.78417">
        <ele>139</ele>
        <time>2022-02-26T17:27:47Z</time>
      </trkpt>
      <trkpt lat="45.32564" lon="4.78444">
        <ele>139</ele>
        <time>2022-02-26T17:28:22Z</time>
      </trkpt>
      <trkpt lat="45.32576" lon="4.78472">
        <ele>140</ele>
        <time>2022-02-26T17:28:53Z</time>
      </trkpt>
      <trkpt lat="45.32602" lon="4.78552">
        <ele>140</ele>
        <time>2022-02-26T17:30:15Z</time>
      </trkpt>
      <trkpt lat="45.32603" lon="4.78586">
        <ele>140</ele>
        <time>2022-02-26T17:30:47Z</time>
      </trkpt>
      <trkpt lat="45.32576" lon="4.786">
        <ele>140</ele>
        <time>2022-02-26T17:31:26Z</time>
      </trkpt>
      <trkpt lat="45.32516" lon="4.78622">
        <ele>141</ele>
        <time>2022-02-26T17:32:48Z</time>
      </trkpt>
      <trkpt lat="45.32477" lon="4.78628">
        <ele>140</ele>
        <time>2022-02-26T17:33:41Z</time>
      </trkpt>
      <trkpt lat="45.32427" lon="4.78628">
        <ele>139</ele>
        <time>2022-02-26T17:34:48Z</time>
      </trkpt>
      <trkpt lat="45.32406" lon="4.78642">
        <ele>138</ele>
        <time>2022-02-26T17:35:18Z</time>
      </trkpt>
      <trkpt lat="45.32383" lon="4.78644">
        <ele>138</ele>
        <time>2022-02-26T17:35:49Z</time>
      </trkpt>
      <trkpt lat="45.32359" lon="4.78656">
        <ele>139</ele>
        <time>2022-02-26T17:36:23Z</time>
      </trkpt>
      <trkpt lat="45.32327" lon="4.78654">
        <ele>139</ele>
        <time>2022-02-26T17:37:06Z</time>
      </trkpt>
      <trkpt lat="45.32299" lon="4.78636">
        <ele>139</ele>
        <time>2022-02-26T17:37:47Z</time>
      </trkpt>
      <trkpt lat="45.32281" lon="4.78651">
        <ele>139</ele>
        <time>2022-02-26T17:38:15Z</time>
      </trkpt>
      <trkpt lat="45.32263" lon="4.78658">
        <ele>139</ele>
        <time>2022-02-26T17:38:40Z</time>
      </trkpt>
      <trkpt lat="45.3225" lon="4.78649">
        <ele>139</ele>
        <time>2022-02-26T17:38:59Z</time>
      </trkpt>
      <trkpt lat="45.32251" lon="4.78662">
        <ele>139</ele>
        <time>2022-02-26T17:39:11Z</time>
      </trkpt>
      <trkpt lat="45.32257" lon="4.7864">
        <ele>139</ele>
        <time>2022-02-26T17:39:33Z</time>
      </trkpt>
      <trkpt lat="45.32235" lon="4.78663">
        <ele>139</ele>
        <time>2022-02-26T17:40:10Z</time>
      </trkpt>
      <trkpt lat="45.32192" lon="4.78674">
        <ele>139</ele>
        <time>2022-02-26T17:41:08Z</time>
      </trkpt>
      <trkpt lat="45.32153" lon="4.78667">
        <ele>139</ele>
        <time>2022-02-26T17:42:01Z</time>
      </trkpt>
      <trkpt lat="45.32139" lon="4.78685">
        <ele>139</ele>
        <time>2022-02-26T17:42:26Z</time>
      </trkpt>
      <trkpt lat="45.32116" lon="4.78683">
        <ele>139</ele>
        <time>2022-02-26T17:42:57Z</time>
      </trkpt>
      <trkpt lat="45.32076" lon="4.78688">
        <ele>139</ele>
        <time>2022-02-26T17:43:50Z</time>
      </trkpt>
      <trkpt lat="45.32039" lon="4.78704">
        <ele>140</ele>
        <time>2022-02-26T17:44:42Z</time>
      </trkpt>
      <trkpt lat="45.32003" lon="4.78705">
        <ele>140</ele>
        <time>2022-02-26T17:45:30Z</time>
      </trkpt>
      <trkpt lat="45.31967" lon="4.78714">
        <ele>140</ele>
        <time>2022-02-26T17:46:19Z</time>
      </trkpt>
      <trkpt lat="45.31925" lon="4.78715">
        <ele>139</ele>
        <time>2022-02-26T17:47:15Z</time>
      </trkpt>
      <trkpt lat="45.31888" lon="4.78728">
        <ele>139</ele>
        <time>2022-02-26T17:48:05Z</time>
      </trkpt>
      <trkpt lat="45.31868" lon="4.78722">
        <ele>138</ele>
        <time>2022-02-26T17:48:33Z</time>
      </trkpt>
      <trkpt lat="45.31822" lon="4.78752">
        <ele>137</ele>
        <time>2022-02-26T17:49:40Z</time>
      </trkpt>
      <trkpt lat="45.31802" lon="4.78756">
        <ele>137</ele>
        <time>2022-02-26T17:50:07Z</time>
      </trkpt>
      <trkpt lat="45.31792" lon="4.78769">
        <ele>137</ele>
        <time>2022-02-26T17:50:25Z</time>
      </trkpt>
      <trkpt lat="45.31744" lon="4.78783">
        <ele>137</ele>
        <time>2022-02-26T17:51:31Z</time>
      </trkpt>
      <trkpt lat="45.31684" lon="4.78808">
        <ele>138</ele>
        <time>2022-02-26T17:52:54Z</time>
      </trkpt>
      <trkpt lat="45.31669" lon="4.78817">
        <ele>138</ele>
        <time>2022-02-26T17:53:16Z</time>
      </trkpt>
      <trkpt lat="45.31652" lon="4.78838">
        <ele>139</ele>
        <time>2022-02-26T17:53:46Z</time>
      </trkpt>
      <trkpt lat="45.31663" lon="4.78863">
        <ele>139</ele>
        <time>2022-02-26T17:54:14Z</time>
      </trkpt>
      <trkpt lat="45.31637" lon="4.78934">
        <ele>140</ele>
        <time>2022-02-26T17:55:29Z</time>
      </trkpt>
      <trkpt lat="45.31598" lon="4.78966">
        <ele>140</ele>
        <time>2022-02-26T17:56:29Z</time>
      </trkpt>
      <trkpt lat="45.31542" lon="4.79005">
        <ele>138</ele>
        <time>2022-02-26T17:57:52Z</time>
      </trkpt>
      <trkpt lat="45.31505" lon="4.79019">
        <ele>137</ele>
        <time>2022-02-26T17:58:43Z</time>
      </trkpt>
      <trkpt lat="45.31416" lon="4.79074">
        <ele>140</ele>
        <time>2022-02-26T18:00:53Z</time>
      </trkpt>
      <trkpt lat="45.31369" lon="4.79109">
        <ele>138</ele>
        <time>2022-02-26T18:02:03Z</time>
      </trkpt>
      <trkpt lat="45.31301" lon="4.79152">
        <ele>137</ele>
        <time>2022-02-26T18:03:43Z</time>
      </trkpt>
      <trkpt lat="45.31279" lon="4.79157">
        <ele>137</ele>
        <time>2022-02-26T18:04:12Z</time>
      </trkpt>
      <trkpt lat="45.31256" lon="4.79175">
        <ele>138</ele>
        <time>2022-02-26T18:04:47Z</time>
      </trkpt>
      <trkpt lat="45.31237" lon="4.79183">
        <ele>138</ele>
        <time>2022-02-26T18:05:14Z</time>
      </trkpt>
      <trkpt lat="45.3122" lon="4.79183">
        <ele>138</ele>
        <time>2022-02-26T18:05:37Z</time>
      </trkpt>
      <trkpt lat="45.31193" lon="4.79213">
        <ele>137</ele>
        <time>2022-02-26T18:06:22Z</time>
      </trkpt>
      <trkpt lat="45.31174" lon="4.79212">
        <ele>137</ele>
        <time>2022-02-26T18:06:48Z</time>
      </trkpt>
      <trkpt lat="45.31172" lon="4.79228">
        <ele>137</ele>
        <time>2022-02-26T18:07:03Z</time>
      </trkpt>
      <trkpt lat="45.31143" lon="4.79254">
        <ele>136</ele>
        <time>2022-02-26T18:07:49Z</time>
      </trkpt>
      <trkpt lat="45.31102" lon="4.79279">
        <ele>136</ele>
        <time>2022-02-26T18:08:48Z</time>
      </trkpt>
      <trkpt lat="45.31054" lon="4.79295">
        <ele>136</ele>
        <time>2022-02-26T18:09:54Z</time>
      </trkpt>
      <trkpt lat="45.31039" lon="4.79316">
        <ele>136</ele>
        <time>2022-02-26T18:10:22Z</time>
      </trkpt>
      <trkpt lat="45.30892" lon="4.79422">
        <ele>137</ele>
        <time>2022-02-26T18:14:02Z</time>
      </trkpt>
      <trkpt lat="45.30783" lon="4.7949">
        <ele>140</ele>
        <time>2022-02-26T18:16:41Z</time>
      </trkpt>
      <trkpt lat="45.30762" lon="4.79485">
        <ele>141</ele>
        <time>2022-02-26T18:17:09Z</time>
      </trkpt>
      <trkpt lat="45.30762" lon="4.79503">
        <ele>141</ele>
        <time>2022-02-26T18:17:26Z</time>
      </trkpt>
      <trkpt lat="45.30753" lon="4.79511">
        <ele>141</ele>
        <time>2022-02-26T18:17:40Z</time>
      </trkpt>
      <trkpt lat="45.30738" lon="4.79502">
        <ele>142</ele>
        <time>2022-02-26T18:18:02Z</time>
      </trkpt>
      <trkpt lat="45.30727" lon="4.79482">
        <ele>142</ele>
        <time>2022-02-26T18:18:26Z</time>
      </trkpt>
      <trkpt lat="45.30724" lon="4.79462">
        <ele>141</ele>
        <time>2022-02-26T18:18:45Z</time>
      </trkpt>
      <trkpt lat="45.30732" lon="4.79442">
        <ele>140</ele>
        <time>2022-02-26T18:19:07Z</time>
      </trkpt>
      <trkpt lat="45.3073" lon="4.79397">
        <ele>138</ele>
        <time>2022-02-26T18:19:49Z</time>
      </trkpt>
      <trkpt lat="45.30737" lon="4.79332">
        <ele>137</ele>
        <time>2022-02-26T18:20:51Z</time>
      </trkpt>
      <trkpt lat="45.30743" lon="4.79199">
        <ele>138</ele>
        <time>2022-02-26T18:22:56Z</time>
      </trkpt>
      <trkpt lat="45.30723" lon="4.79176">
        <ele>138</ele>
        <time>2022-02-26T18:23:30Z</time>
      </trkpt>
      <trkpt lat="45.30759" lon="4.79087">
        <ele>139</ele>
        <time>2022-02-26T18:25:06Z</time>
      </trkpt>
      <trkpt lat="45.3077" lon="4.79037">
        <ele>138</ele>
        <time>2022-02-26T18:25:56Z</time>
      </trkpt>
      <trkpt lat="45.30762" lon="4.7902">
        <ele>138</ele>
        <time>2022-02-26T18:26:15Z</time>
      </trkpt>
      <trkpt lat="45.3077" lon="4.78984">
        <ele>137</ele>
        <time>2022-02-26T18:26:50Z</time>
      </trkpt>
      <trkpt lat="45.30821" lon="4.78902">
        <ele>137</ele>
        <time>2022-02-26T18:28:33Z</time>
      </trkpt>
      <trkpt lat="45.30855" lon="4.78872">
        <ele>136</ele>
        <time>2022-02-26T18:29:26Z</time>
      </trkpt>
      <trkpt lat="45.30844" lon="4.78863">
        <ele>136</ele>
        <time>2022-02-26T18:29:43Z</time>
      </trkpt>
      <trkpt lat="45.30844" lon="4.78844">
        <ele>135</ele>
        <time>2022-02-26T18:30:01Z</time>
      </trkpt>
      <trkpt lat="45.30896" lon="4.78769">
        <ele>133</ele>
        <time>2022-02-26T18:31:40Z</time>
      </trkpt>
      <trkpt lat="45.30909" lon="4.78754">
        <ele>132</ele>
        <time>2022-02-26T18:32:02Z</time>
      </trkpt>
      <trkpt lat="45.30928" lon="4.78741">
        <ele>133</ele>
        <time>2022-02-26T18:32:30Z</time>
      </trkpt>
      <trkpt lat="45.3093" lon="4.78719">
        <ele>133</ele>
        <time>2022-02-26T18:32:51Z</time>
      </trkpt>
      <trkpt lat="45.30972" lon="4.78671">
        <ele>136</ele>
        <time>2022-02-26T18:34:03Z</time>
      </trkpt>
      <trkpt lat="45.30977" lon="4.78644">
        <ele>137</ele>
        <time>2022-02-26T18:34:29Z</time>
      </trkpt>
      <trkpt lat="45.30987" lon="4.78623">
        <ele>139</ele>
        <time>2022-02-26T18:34:53Z</time>
      </trkpt>
      <trkpt lat="45.31022" lon="4.78575">
        <ele>139</ele>
        <time>2022-02-26T18:35:58Z</time>
      </trkpt>
      <trkpt lat="45.31042" lon="4.7856">
        <ele>137</ele>
        <time>2022-02-26T18:36:28Z</time>
      </trkpt>
      <trkpt lat="45.31044" lon="4.78533">
        <ele>136</ele>
        <time>2022-02-26T18:36:54Z</time>
      </trkpt>
      <trkpt lat="45.31071" lon="4.78473">
        <ele>135</ele>
        <time>2022-02-26T18:38:01Z</time>
      </trkpt>
      <trkpt lat="45.31078" lon="4.78426">
        <ele>136</ele>
        <time>2022-02-26T18:38:46Z</time>
      </trkpt>
      <trkpt lat="45.3109" lon="4.78394">
        <ele>136</ele>
        <time>2022-02-26T18:39:20Z</time>
      </trkpt>
      <trkpt lat="45.31127" lon="4.78323">
        <ele>135</ele>
        <time>2022-02-26T18:40:43Z</time>
      </trkpt>
      <trkpt lat="45.31132" lon="4.78276">
        <ele>135</ele>
        <time>2022-02-26T18:41:27Z</time>
      </trkpt>
      <trkpt lat="45.31141" lon="4.7826">
        <ele>135</ele>
        <time>2022-02-26T18:41:47Z</time>
      </trkpt>
      <trkpt lat="45.31222" lon="4.78023">
        <ele>137</ele>
        <time>2022-02-26T18:45:54Z</time>
      </trkpt>
      <trkpt lat="45.31262" lon="4.77932">
        <ele>138</ele>
        <time>2022-02-26T18:47:35Z</time>
      </trkpt>
      <trkpt lat="45.31278" lon="4.7788">
        <ele>137</ele>
        <time>2022-02-26T18:48:28Z</time>
      </trkpt>
      <trkpt lat="45.31334" lon="4.77822">
        <ele>137</ele>
        <time>2022-02-26T18:50:00Z</time>
      </trkpt>
      <trkpt lat="45.31358" lon="4.77811">
        <ele>137</ele>
        <time>2022-02-26T18:50:34Z</time>
      </trkpt>
      <trkpt lat="45.31375" lon="4.77778">
        <ele>137</ele>
        <time>2022-02-26T18:51:12Z</time>
      </trkpt>
      <trkpt lat="45.31386" lon="4.7774">
        <ele>137</ele>
        <time>2022-02-26T18:51:51Z</time>
      </trkpt>
      <trkpt lat="45.31403" lon="4.77676">
        <ele>137</ele>
        <time>2022-02-26T18:52:55Z</time>
      </trkpt>
      <trkpt lat="45.3141" lon="4.77624">
        <ele>137</ele>
        <time>2022-02-26T18:53:45Z</time>
      </trkpt>
      <trkpt lat="45.31422" lon="4.77602">
        <ele>137</ele>
        <time>2022-02-26T18:54:11Z</time>
      </trkpt>
      <trkpt lat="45.3144" lon="4.7759">
        <ele>137</ele>
        <time>2022-02-26T18:54:37Z</time>
      </trkpt>
      <trkpt lat="45.31437" lon="4.77565">
        <ele>137</ele>
        <time>2022-02-26T18:55:01Z</time>
      </trkpt>
      <trkpt lat="45.31473" lon="4.77528">
        <ele>137</ele>
        <time>2022-02-26T18:56:00Z</time>
      </trkpt>
      <trkpt lat="45.31483" lon="4.77493">
        <ele>137</ele>
        <time>2022-02-26T18:56:36Z</time>
      </trkpt>
      <trkpt lat="45.31496" lon="4.77468">
        <ele>137</ele>
        <time>2022-02-26T18:57:05Z</time>
      </trkpt>
      <trkpt lat="45.31533" lon="4.77445">
        <ele>138</ele>
        <time>2022-02-26T18:57:59Z</time>
      </trkpt>
      <trkpt lat="45.31569" lon="4.77391">
        <ele>138</ele>
        <time>2022-02-26T18:59:09Z</time>
      </trkpt>
      <trkpt lat="45.31567" lon="4.77354">
        <ele>137</ele>
        <time>2022-02-26T18:59:44Z</time>
      </trkpt>
      <trkpt lat="45.31589" lon="4.77337">
        <ele>137</ele>
        <time>2022-02-26T19:00:17Z</time>
      </trkpt>
      <trkpt lat="45.31602" lon="4.77309">
        <ele>137</ele>
        <time>2022-02-26T19:00:49Z</time>
      </trkpt>
      <trkpt lat="45.31618" lon="4.77288">
        <ele>137</ele>
        <time>2022-02-26T19:01:18Z</time>
      </trkpt>
      <trkpt lat="45.31642" lon="4.77272">
        <ele>138</ele>
        <time>2022-02-26T19:01:53Z</time>
      </trkpt>
      <trkpt lat="45.3165" lon="4.77251">
        <ele>138</ele>
        <time>2022-02-26T19:02:15Z</time>
      </trkpt>
      <trkpt lat="45.31665" lon="4.77234">
        <ele>139</ele>
        <time>2022-02-26T19:02:41Z</time>
      </trkpt>
      <trkpt lat="45.31671" lon="4.77203">
        <ele>138</ele>
        <time>2022-02-26T19:03:11Z</time>
      </trkpt>
      <trkpt lat="45.31656" lon="4.77192">
        <ele>137</ele>
        <time>2022-02-26T19:03:34Z</time>
      </trkpt>
      <trkpt lat="45.31659" lon="4.77154">
        <ele>137</ele>
        <time>2022-02-26T19:04:10Z</time>
      </trkpt>
      <trkpt lat="45.31669" lon="4.77121">
        <ele>136</ele>
        <time>2022-02-26T19:04:43Z</time>
      </trkpt>
      <trkpt lat="45.31704" lon="4.77116">
        <ele>137</ele>
        <time>2022-02-26T19:05:30Z</time>
      </trkpt>
      <trkpt lat="45.31725" lon="4.77094">
        <ele>137</ele>
        <time>2022-02-26T19:06:05Z</time>
      </trkpt>
      <trkpt lat="45.31735" lon="4.77074">
        <ele>137</ele>
        <time>2022-02-26T19:06:28Z</time>
      </trkpt>
      <trkpt lat="45.31721" lon="4.77072">
        <ele>137</ele>
        <time>2022-02-26T19:06:47Z</time>
      </trkpt>
      <trkpt lat="45.31726" lon="4.77075">
        <ele>137</ele>
        <time>2022-02-26T19:06:54Z</time>
      </trkpt>
      <trkpt lat="45.31722" lon="4.77049">
        <ele>137</ele>
        <time>2022-02-26T19:07:19Z</time>
      </trkpt>
      <trkpt lat="45.31726" lon="4.77076">
        <ele>137</ele>
        <time>2022-02-26T19:07:45Z</time>
      </trkpt>
      <trkpt lat="45.31719" lon="4.77076">
        <ele>137</ele>
        <time>2022-02-26T19:07:54Z</time>
      </trkpt>
      <trkpt lat="45.31719" lon="4.77073">
        <ele>137</ele>
        <time>2022-02-26T19:07:57Z</time>
      </trkpt>
      <trkpt lat="45.31733" lon="4.77061">
        <ele>137</ele>
        <time>2022-02-26T19:08:19Z</time>
      </trkpt>
      <trkpt lat="45.31784" lon="4.76922">
        <ele>137</ele>
        <time>2022-02-26T19:10:46Z</time>
      </trkpt>
      <trkpt lat="45.31802" lon="4.76896">
        <ele>138</ele>
        <time>2022-02-26T19:11:20Z</time>
      </trkpt>
      <trkpt lat="45.31844" lon="4.76863">
        <ele>138</ele>
        <time>2022-02-26T19:12:24Z</time>
      </trkpt>
      <trkpt lat="45.31845" lon="4.76844">
        <ele>138</ele>
        <time>2022-02-26T19:12:42Z</time>
      </trkpt>
      <trkpt lat="45.31865" lon="4.7684">
        <ele>138</ele>
        <time>2022-02-26T19:13:09Z</time>
      </trkpt>
      <trkpt lat="45.31883" lon="4.7685">
        <ele>138</ele>
        <time>2022-02-26T19:13:35Z</time>
      </trkpt>
      <trkpt lat="45.31904" lon="4.76852">
        <ele>138</ele>
        <time>2022-02-26T19:14:03Z</time>
      </trkpt>
      <trkpt lat="45.3191" lon="4.76833">
        <ele>137</ele>
        <time>2022-02-26T19:14:23Z</time>
      </trkpt>
      <trkpt lat="45.31921" lon="4.76827">
        <ele>137</ele>
        <time>2022-02-26T19:14:38Z</time>
      </trkpt>
      <trkpt lat="45.31925" lon="4.76839">
        <ele>137</ele>
        <time>2022-02-26T19:14:51Z</time>
      </trkpt>
      <trkpt lat="45.31933" lon="4.76828">
        <ele>137</ele>
        <time>2022-02-26T19:15:06Z</time>
      </trkpt>
      <trkpt lat="45.31937" lon="4.76837">
        <ele>137</ele>
        <time>2022-02-26T19:15:16Z</time>
      </trkpt>
      <trkpt lat="45.3193" lon="4.76861">
        <ele>138</ele>
        <time>2022-02-26T19:15:40Z</time>
      </trkpt>
      <trkpt lat="45.31936" lon="4.76914">
        <ele>139</ele>
        <time>2022-02-26T19:16:30Z</time>
      </trkpt>
      <trkpt lat="45.31967" lon="4.76965">
        <ele>137</ele>
        <time>2022-02-26T19:17:34Z</time>
      </trkpt>
      <trkpt lat="45.3198" lon="4.76965">
        <ele>137</ele>
        <time>2022-02-26T19:17:51Z</time>
      </trkpt>
      <trkpt lat="45.31994" lon="4.76938">
        <ele>138</ele>
        <time>2022-02-26T19:18:22Z</time>
      </trkpt>
      <trkpt lat="45.32013" lon="4.7692">
        <ele>138</ele>
        <time>2022-02-26T19:18:53Z</time>
      </trkpt>
      <trkpt lat="45.32055" lon="4.76915">
        <ele>137</ele>
        <time>2022-02-26T19:19:49Z</time>
      </trkpt>
      <trkpt lat="45.32063" lon="4.76883">
        <ele>137</ele>
        <time>2022-02-26T19:20:21Z</time>
      </trkpt>
      <trkpt lat="45.32081" lon="4.7687">
        <ele>137</ele>
        <time>2022-02-26T19:20:48Z</time>
      </trkpt>
      <trkpt lat="45.32102" lon="4.76896">
        <ele>137</ele>
        <time>2022-02-26T19:21:25Z</time>
      </trkpt>
      <trkpt lat="45.32111" lon="4.76916">
        <ele>137</ele>
        <time>2022-02-26T19:21:47Z</time>
      </trkpt>
      <trkpt lat="45.32124" lon="4.76922">
        <ele>137</ele>
        <time>2022-02-26T19:22:06Z</time>
      </trkpt>
      <trkpt lat="45.32145" lon="4.76952">
        <ele>137</ele>
        <time>2022-02-26T19:22:45Z</time>
      </trkpt>
      <trkpt lat="45.32162" lon="4.76986">
        <ele>137</ele>
        <time>2022-02-26T19:23:24Z</time>
      </trkpt>
      <trkpt lat="45.32203" lon="4.77107">
        <ele>137</ele>
        <time>2022-02-26T19:25:30Z</time>
      </trkpt>
      <trkpt lat="45.32216" lon="4.7713">
        <ele>137</ele>
        <time>2022-02-26T19:25:58Z</time>
      </trkpt>
      <trkpt lat="45.32207" lon="4.77173">
        <ele>136</ele>
        <time>2022-02-26T19:26:40Z</time>
      </trkpt>
      <trkpt lat="45.32212" lon="4.77195">
        <ele>137</ele>
        <time>2022-02-26T19:27:02Z</time>
      </trkpt>
      <trkpt lat="45.3223" lon="4.77206">
        <ele>137</ele>
        <time>2022-02-26T19:27:28Z</time>
      </trkpt>
      <trkpt lat="45.32259" lon="4.77271">
        <ele>137</ele>
        <time>2022-02-26T19:28:40Z</time>
      </trkpt>
      <trkpt lat="45.32282" lon="4.77376">
        <ele>137</ele>
        <time>2022-02-26T19:30:23Z</time>
      </trkpt>
      <trkpt lat="45.3229" lon="4.77432">
        <ele>137</ele>
        <time>2022-02-26T19:31:17Z</time>
      </trkpt>
      <trkpt lat="45.32316" lon="4.77473">
        <ele>138</ele>
        <time>2022-02-26T19:32:09Z</time>
      </trkpt>
      <trkpt lat="45.32321" lon="4.77511">
        <ele>138</ele>
        <time>2022-02-26T19:32:45Z</time>
      </trkpt>
      <trkpt lat="45.3232" lon="4.77543">
        <ele>137</ele>
        <time>2022-02-26T19:33:15Z</time>
      </trkpt>
      <trkpt lat="45.32326" lon="4.77576">
        <ele>136</ele>
        <time>2022-02-26T19:33:47Z</time>
      </trkpt>
      <trkpt lat="45.32324" lon="4.7761">
        <ele>136</ele>
        <time>2022-02-26T19:34:19Z</time>
      </trkpt>
      <trkpt lat="45.32331" lon="4.77616">
        <ele>136</ele>
        <time>2022-02-26T19:34:30Z</time>
      </trkpt>
      <trkpt lat="45.32323" lon="4.77627">
        <ele>136</ele>
        <time>2022-02-26T19:34:45Z</time>
      </trkpt>
      <trkpt lat="45.32279" lon="4.77642">
        <ele>137</ele>
        <time>2022-02-26T19:35:45Z</time>
      </trkpt>
      <trkpt lat="45.32261" lon="4.77653">
        <ele>137</ele>
        <time>2022-02-26T19:36:12Z</time>
      </trkpt>
      <trkpt lat="45.32259" lon="4.77704">
        <ele>136</ele>
        <time>2022-02-26T19:36:59Z</time>
      </trkpt>
      <trkpt lat="45.32273" lon="4.77705">
        <ele>136</ele>
        <time>2022-02-26T19:37:18Z</time>
      </trkpt>
      <trkpt lat="45.32272" lon="4.77717">
        <ele>136</ele>
        <time>2022-02-26T19:37:29Z</time>
      </trkpt>
      <trkpt lat="45.32279" lon="4.77744">
        <ele>136</ele>
        <time>2022-02-26T19:37:56Z</time>
      </trkpt>
      <trkpt lat="45.32291" lon="4.77762">
        <ele>136</ele>
        <time>2022-02-26T19:38:20Z</time>
      </trkpt>
    </trkseg>
  </trk>
</gpx>